Time;durP1;ratioP1;P1;durP2;ratioP2;P2;SDS_P1;SDS_P2;PMS_P1;PMS_P2;Temp;Humidity;BMP_temperature;BMP_pressure;BME280_temperature;BME280_humidity;BME280_pressure;Samples;Min_cycle;Max_cycle;Signal;HPM_P1;HPM_P2
2021/05/07 00:01:04;;;;;;;2.73;0.80;;;6.80;99.90;;;;;;5059005;28;20442;-82
2021/05/07 00:03:29;;;;;;;2.97;1.00;;;6.80;99.90;;;;;;5077361;28;20577;-82
2021/05/07 00:05:55;;;;;;;2.20;0.90;;;6.90;99.90;;;;;;5059200;28;20177;-81
2021/05/07 00:08:34;;;;;;;0.90;0.80;;;6.90;99.90;;;;;;5059742;28;20514;-82
2021/05/07 00:11:02;;;;;;;2.00;0.80;;;6.90;99.90;;;;;;5059619;28;20188;-81
2021/05/07 00:13:28;;;;;;;2.97;0.83;;;6.90;99.90;;;;;;5077372;28;20177;-82
2021/05/07 00:15:55;;;;;;;1.20;1.10;;;6.90;99.90;;;;;;5077294;28;20970;-82
2021/05/07 00:18:21;;;;;;;1.07;0.87;;;6.90;99.90;;;;;;5077103;28;20235;-82
2021/05/07 00:20:46;;;;;;;1.07;1.00;;;6.90;99.90;;;;;;5058956;28;20463;-82
2021/05/07 00:23:12;;;;;;;2.70;1.00;;;6.90;99.90;;;;;;5059405;28;20204;-82
2021/05/07 00:25:39;;;;;;;1.17;1.10;;;6.90;99.90;;;;;;5059055;28;20172;-82
2021/05/07 00:28:11;;;;;;;0.90;0.80;;;6.90;99.90;;;;;;5058921;28;20192;-82
2021/05/07 00:30:38;;;;;;;2.43;1.20;;;6.80;99.90;;;;;;5058711;28;20434;-82
2021/05/07 00:33:06;;;;;;;2.87;1.33;;;6.80;99.90;;;;;;5059038;28;20509;-82
2021/05/07 00:35:32;;;;;;;1.70;1.10;;;6.80;99.90;;;;;;5058814;28;20477;-81
2021/05/07 00:37:58;;;;;;;2.03;1.00;;;6.90;99.90;;;;;;5059173;28;20453;-82
2021/05/07 00:40:24;;;;;;;3.07;1.23;;;6.80;99.90;;;;;;5058335;28;20463;-82
2021/05/07 00:42:49;;;;;;;2.43;1.10;;;6.90;99.90;;;;;;5058066;28;20207;-82
2021/05/07 00:45:17;;;;;;;1.13;0.53;;;6.90;99.90;;;;;;5058161;28;20173;-82
2021/05/07 00:47:47;;;;;;;2.13;0.90;;;6.90;99.90;;;;;;5058366;28;20247;-82
2021/05/07 00:50:14;;;;;;;1.73;1.00;;;6.90;99.90;;;;;;5057810;28;20784;-81
2021/05/07 00:52:40;;;;;;;2.70;0.90;;;6.90;99.90;;;;;;5076126;28;20741;-82
2021/05/07 00:55:07;;;;;;;1.03;0.90;;;6.90;99.90;;;;;;5075936;28;20410;-82
2021/05/07 00:57:34;;;;;;;1.83;0.93;;;6.90;99.90;;;;;;5057747;28;20169;-81
2021/05/07 01:00:00;;;;;;;1.17;1.00;;;6.90;99.90;;;;;;5075879;28;20540;-82
2021/05/07 01:02:26;;;;;;;1.40;0.90;;;6.90;99.90;;;;;;5057808;28;20176;-81
2021/05/07 01:04:52;;;;;;;2.50;1.13;;;6.90;99.90;;;;;;5075865;28;20201;-81
2021/05/07 01:07:18;;;;;;;1.93;1.00;;;6.90;99.90;;;;;;5057568;28;20173;-81
2021/05/07 01:09:44;;;;;;;1.00;0.80;;;6.90;99.90;;;;;;5075663;28;20226;-81
2021/05/07 01:12:10;;;;;;;2.20;0.80;;;6.90;99.90;;;;;;5057651;28;20176;-81
2021/05/07 01:14:36;;;;;;;2.63;0.90;;;6.90;99.90;;;;;;5057387;28;20419;-81
2021/05/07 01:17:03;;;;;;;9.07;1.30;;;7.00;99.90;;;;;;5075557;28;20766;-81
2021/05/07 01:19:29;;;;;;;1.10;0.90;;;7.00;99.90;;;;;;5058042;28;20411;-81
2021/05/07 01:21:56;;;;;;;1.17;0.83;;;6.90;99.90;;;;;;5057425;28;20507;-81
2021/05/07 01:24:29;;;;;;;2.40;1.00;;;6.90;99.90;;;;;;5074909;28;20454;-81
2021/05/07 01:26:55;;;;;;;1.17;0.80;;;6.90;99.90;;;;;;5075561;28;20407;-81
2021/05/07 01:29:21;;;;;;;1.13;0.90;;;6.90;99.90;;;;;;5075450;28;20169;-81
2021/05/07 01:31:54;;;;;;;1.60;1.00;;;6.90;99.90;;;;;;5075428;28;20430;-81
2021/05/07 01:34:20;;;;;;;1.40;0.80;;;6.90;99.90;;;;;;5057442;28;20591;-81
2021/05/07 01:36:45;;;;;;;1.27;0.90;;;6.90;99.90;;;;;;5057423;28;20539;-81
2021/05/07 01:39:11;;;;;;;3.00;1.30;;;6.90;99.90;;;;;;5056682;28;20443;-81
2021/05/07 01:41:37;;;;;;;1.30;1.20;;;6.90;99.90;;;;;;5073404;28;20196;-81
2021/05/07 01:44:02;;;;;;;1.03;0.80;;;6.90;99.90;;;;;;5056206;28;20213;-82
2021/05/07 01:46:28;;;;;;;1.57;0.97;;;6.90;99.90;;;;;;5073880;28;20260;-81
2021/05/07 01:48:54;;;;;;;1.27;1.00;;;6.90;99.90;;;;;;5074039;28;20177;-81
2021/05/07 01:51:19;;;;;;;1.00;0.90;;;6.80;99.90;;;;;;5055952;28;20196;-81
2021/05/07 01:53:45;;;;;;;1.00;0.80;;;6.80;99.90;;;;;;5077439;28;20544;-81
2021/05/07 01:56:11;;;;;;;1.40;1.00;;;6.80;99.90;;;;;;5082535;28;20232;-81
2021/05/07 01:58:36;;;;;;;1.13;0.80;;;6.80;99.90;;;;;;5076221;28;20177;-81
2021/05/07 02:01:03;;;;;;;1.90;0.80;;;6.70;99.90;;;;;;5099163;28;20201;-80
2021/05/07 02:03:29;;;;;;;1.57;1.07;;;6.80;99.90;;;;;;5081993;28;20204;-80
2021/05/07 02:05:55;;;;;;;3.33;0.80;;;6.80;99.90;;;;;;5080078;28;20431;-81
2021/05/07 02:08:20;;;;;;;4.27;0.80;;;6.70;99.90;;;;;;5057469;28;20211;-81
2021/05/07 02:10:46;;;;;;;1.60;1.00;;;6.70;99.90;;;;;;5096428;28;20423;-81
2021/05/07 02:13:12;;;;;;;1.13;0.90;;;6.70;99.90;;;;;;5082322;28;20244;-82
2021/05/07 02:15:38;;;;;;;1.10;1.00;;;6.60;99.90;;;;;;5079792;28;20204;-82
2021/05/07 02:18:06;;;;;;;1.53;0.80;;;6.60;99.90;;;;;;5080102;28;20243;-82
2021/05/07 02:20:33;;;;;;;1.67;0.93;;;6.60;99.90;;;;;;5080384;28;20208;-82
2021/05/07 02:22:59;;;;;;;1.27;1.13;;;6.60;99.90;;;;;;5062222;28;20606;-82
2021/05/07 02:25:26;;;;;;;3.80;0.97;;;6.60;99.90;;;;;;5060070;28;20204;-82
2021/05/07 02:27:54;;;;;;;1.37;1.13;;;6.60;99.90;;;;;;5060612;28;20423;-82
2021/05/07 02:30:22;;;;;;;2.97;1.20;;;6.50;99.90;;;;;;5077759;28;20243;-82
2021/05/07 02:32:48;;;;;;;1.50;1.10;;;6.60;99.90;;;;;;5059812;28;20419;-82
2021/05/07 02:35:14;;;;;;;1.67;1.10;;;6.50;99.90;;;;;;5059148;28;20419;-81
2021/05/07 02:37:41;;;;;;;2.90;1.10;;;6.60;99.90;;;;;;5059810;28;20247;-82
2021/05/07 02:40:08;;;;;;;0.87;0.87;;;6.50;99.90;;;;;;5059244;28;20431;-82
2021/05/07 02:42:34;;;;;;;2.83;1.30;;;6.60;99.90;;;;;;5077617;28;20405;-82
2021/05/07 02:45:03;;;;;;;1.13;1.00;;;6.60;99.90;;;;;;5059009;28;20245;-82
2021/05/07 02:47:31;;;;;;;1.10;1.00;;;6.60;99.90;;;;;;5059572;28;20220;-81
2021/05/07 02:49:57;;;;;;;1.40;0.90;;;6.60;99.90;;;;;;5059090;28;20207;-81
2021/05/07 02:52:23;;;;;;;5.33;1.57;;;6.60;99.90;;;;;;5077500;28;20458;-82
2021/05/07 02:54:49;;;;;;;0.77;0.77;;;6.60;99.90;;;;;;5061960;28;20469;-81
2021/05/07 02:57:14;;;;;;;0.93;0.83;;;6.60;99.90;;;;;;5080234;28;20415;-82
2021/05/07 02:59:40;;;;;;;2.43;0.90;;;6.60;99.90;;;;;;5079968;28;20677;-81
2021/05/07 03:02:06;;;;;;;2.23;1.30;;;6.50;99.90;;;;;;5062154;28;20177;-82
2021/05/07 03:04:31;;;;;;;3.23;1.03;;;6.50;99.90;;;;;;5079807;28;20196;-82
2021/05/07 03:06:59;;;;;;;2.93;1.47;;;6.50;99.90;;;;;;5080261;28;20252;-82
2021/05/07 03:09:25;;;;;;;3.17;1.40;;;6.50;99.90;;;;;;5079636;28;20169;-82
2021/05/07 03:11:51;;;;;;;1.70;1.40;;;6.50;99.90;;;;;;5079365;28;20454;-82
2021/05/07 03:14:16;;;;;;;2.40;1.53;;;6.50;99.90;;;;;;5061675;28;20176;-82
2021/05/07 03:16:42;;;;;;;2.90;1.50;;;6.40;99.90;;;;;;5061308;28;20190;-82
2021/05/07 03:19:08;;;;;;;3.67;1.50;;;6.50;99.90;;;;;;5061126;28;20180;-82
2021/05/07 03:21:34;;;;;;;2.20;1.50;;;6.40;99.90;;;;;;5061078;28;20245;-82
2021/05/07 03:23:59;;;;;;;2.97;1.47;;;6.40;99.90;;;;;;5079459;28;20206;-82
2021/05/07 03:26:25;;;;;;;1.93;1.40;;;6.40;99.90;;;;;;5060932;28;20231;-82
2021/05/07 03:28:51;;;;;;;2.57;1.60;;;6.40;99.90;;;;;;5060846;28;20176;-82
2021/05/07 03:31:17;;;;;;;2.03;1.77;;;6.40;99.90;;;;;;5078750;28;20188;-82
2021/05/07 03:33:44;;;;;;;4.33;1.60;;;6.40;99.90;;;;;;5078781;28;20208;-82
2021/05/07 03:36:10;;;;;;;2.67;1.80;;;6.40;99.90;;;;;;5060480;28;20184;-82
2021/05/07 03:38:36;;;;;;;2.00;1.47;;;6.40;99.90;;;;;;5078867;28;20822;-81
2021/05/07 03:41:01;;;;;;;4.30;2.00;;;6.40;99.90;;;;;;5060665;28;20713;-81
2021/05/07 03:43:27;;;;;;;2.87;1.70;;;6.30;99.90;;;;;;5078330;28;20295;-82
2021/05/07 03:45:53;;;;;;;3.33;2.00;;;6.40;99.90;;;;;;5060564;28;20713;-82
2021/05/07 03:48:21;;;;;;;2.67;1.60;;;6.40;99.90;;;;;;5078739;28;20244;-83
2021/05/07 03:50:48;;;;;;;2.30;1.73;;;6.40;99.90;;;;;;5078204;28;20188;-82
2021/05/07 03:53:15;;;;;;;4.60;1.60;;;6.40;99.90;;;;;;5078365;28;20418;-82
2021/05/07 03:55:41;;;;;;;2.53;1.60;;;6.40;99.90;;;;;;5078207;28;20408;-82
2021/05/07 03:58:07;;;;;;;2.27;1.50;;;6.40;99.90;;;;;;5060844;28;20459;-82
2021/05/07 04:00:34;;;;;;;3.43;1.77;;;6.40;99.90;;;;;;5060056;28;20431;-82
2021/05/07 04:03:01;;;;;;;4.50;1.67;;;6.40;99.90;;;;;;5078288;28;20196;-81
2021/05/07 04:05:27;;;;;;;2.83;1.67;;;6.40;99.90;;;;;;5058943;28;20177;-81
2021/05/07 04:11:06;;;;;;;5.13;2.00;;;6.40;99.90;;;;;;5015813;28;20677;-82
2021/05/07 04:13:37;;;;;;;2.37;1.63;;;6.40;99.90;;;;;;4999966;28;20537;-82
2021/05/07 04:16:03;;;;;;;2.37;1.53;;;6.40;99.90;;;;;;5033857;28;20408;-82
2021/05/07 04:18:29;;;;;;;4.67;1.73;;;6.40;99.90;;;;;;5059197;28;20476;-81
2021/05/07 04:20:54;;;;;;;5.43;1.73;;;6.40;99.90;;;;;;5077818;28;20556;-81
2021/05/07 04:23:20;;;;;;;1.57;1.27;;;6.40;99.90;;;;;;5077938;28;20193;-81
2021/05/07 04:25:46;;;;;;;2.57;1.10;;;6.20;99.90;;;;;;5059374;28;20173;-81
2021/05/07 04:28:12;;;;;;;1.97;1.03;;;6.10;99.90;;;;;;5077202;28;20176;-81
2021/05/07 04:30:38;;;;;;;3.57;1.47;;;6.00;99.90;;;;;;5076027;28;20192;-81
2021/05/07 04:33:04;;;;;;;2.70;1.30;;;5.90;99.90;;;;;;5058062;28;20188;-81
2021/05/07 04:35:30;;;;;;;2.23;0.83;;;5.80;99.90;;;;;;5058080;28;20179;-81
2021/05/07 04:37:56;;;;;;;0.87;0.87;;;5.80;99.90;;;;;;5075966;28;20487;-81
2021/05/07 04:40:21;;;;;;;0.80;0.80;;;5.80;99.90;;;;;;5075997;28;20200;-81
2021/05/07 04:42:47;;;;;;;1.27;1.17;;;5.90;99.90;;;;;;5057887;28;20235;-81
2021/05/07 04:45:13;;;;;;;1.20;1.00;;;5.90;99.90;;;;;;5075381;28;20184;-81
2021/05/07 04:47:38;;;;;;;1.40;0.70;;;5.90;99.90;;;;;;5057779;28;20177;-81
2021/05/07 04:50:05;;;;;;;1.00;0.80;;;5.90;99.90;;;;;;5057580;28;20564;-80
2021/05/07 04:52:31;;;;;;;0.90;0.90;;;5.90;99.90;;;;;;5057997;28;20174;-81
2021/05/07 04:54:57;;;;;;;1.33;0.90;;;5.80;99.90;;;;;;5057795;28;20177;-81
2021/05/07 04:57:28;;;;;;;0.60;0.60;;;5.80;99.90;;;;;;5075528;28;20214;-81
2021/05/07 04:59:54;;;;;;;0.70;0.70;;;5.70;99.90;;;;;;5057502;28;20411;-80
2021/05/07 05:02:21;;;;;;;1.33;0.90;;;5.70;99.90;;;;;;5074227;28;20419;-80
2021/05/07 05:04:47;;;;;;;0.70;0.70;;;5.60;99.90;;;;;;5056994;28;20483;-81
2021/05/07 05:07:13;;;;;;;0.77;0.70;;;5.60;99.90;;;;;;5074556;28;20466;-80
2021/05/07 05:09:38;;;;;;;0.80;0.70;;;5.60;99.90;;;;;;5074546;28;20411;-80
2021/05/07 05:12:05;;;;;;;0.93;0.80;;;5.60;99.90;;;;;;5062566;28;20173;-81
2021/05/07 05:14:31;;;;;;;1.53;0.90;;;5.50;99.90;;;;;;5092863;28;20165;-82
2021/05/07 05:16:57;;;;;;;0.97;0.97;;;5.50;99.90;;;;;;5099427;28;20415;-81
2021/05/07 05:19:23;;;;;;;1.83;0.90;;;5.50;99.90;;;;;;5097590;28;20161;-81
2021/05/07 05:21:49;;;;;;;1.80;1.20;;;5.50;99.90;;;;;;5076430;28;20208;-82
2021/05/07 05:24:14;;;;;;;0.93;0.90;;;5.60;99.90;;;;;;5075816;28;20215;-81
2021/05/07 05:26:40;;;;;;;0.80;0.80;;;5.60;99.90;;;;;;5058823;28;20273;-81
2021/05/07 05:29:06;;;;;;;1.20;1.10;;;5.60;99.90;;;;;;5059154;28;20180;-81
2021/05/07 05:31:31;;;;;;;0.83;0.83;;;5.60;99.90;;;;;;5058650;28;20197;-81
2021/05/07 05:33:57;;;;;;;0.70;0.70;;;5.70;99.90;;;;;;5076369;28;20177;-81
2021/05/07 05:36:24;;;;;;;1.30;1.17;;;5.70;99.90;;;;;;5058484;28;20176;-82
2021/05/07 05:38:50;;;;;;;1.83;0.93;;;5.80;99.90;;;;;;5059157;28;20647;-81
2021/05/07 05:41:15;;;;;;;1.03;1.03;;;5.80;99.90;;;;;;5077206;28;20525;-82
2021/05/07 05:43:41;;;;;;;1.00;0.90;;;5.90;99.90;;;;;;5059168;28;20211;-81
2021/05/07 05:46:07;;;;;;;0.80;0.80;;;6.00;99.90;;;;;;5058265;28;20264;-82
2021/05/07 05:48:33;;;;;;;1.13;0.60;;;6.00;99.90;;;;;;5058751;28;20665;-81
2021/05/07 05:50:58;;;;;;;1.03;0.90;;;6.10;99.90;;;;;;5058355;28;20196;-81
2021/05/07 05:53:24;;;;;;;0.90;0.80;;;6.20;99.90;;;;;;5058539;28;20272;-80
2021/05/07 05:55:49;;;;;;;0.50;0.50;;;6.20;99.90;;;;;;5058175;28;20183;-81
2021/05/07 05:58:15;;;;;;;1.00;0.97;;;6.30;99.90;;;;;;5058935;28;20223;-81
2021/05/07 06:00:41;;;;;;;1.10;0.87;;;6.30;99.90;;;;;;5058472;28;20206;-81
2021/05/07 06:03:06;;;;;;;2.13;1.00;;;6.40;99.90;;;;;;5058281;28;20564;-81
2021/05/07 06:05:32;;;;;;;2.53;1.27;;;6.60;99.90;;;;;;5057839;28;20210;-81
2021/05/07 06:07:58;;;;;;;1.63;1.00;;;6.80;99.90;;;;;;5076671;28;20176;-81
2021/05/07 06:10:23;;;;;;;1.67;1.03;;;7.00;99.90;;;;;;5076485;28;20185;-81
2021/05/07 06:12:50;;;;;;;1.57;1.07;;;7.00;99.90;;;;;;5077150;28;20175;-81
2021/05/07 06:15:17;;;;;;;3.20;1.43;;;7.00;99.90;;;;;;5058472;28;20180;-81
2021/05/07 06:17:44;;;;;;;1.77;1.20;;;7.00;99.90;;;;;;5057048;28;20450;-81
2021/05/07 06:20:12;;;;;;;4.37;1.70;;;7.10;99.90;;;;;;5057757;28;20841;-81
2021/05/07 06:22:38;;;;;;;5.63;1.67;;;7.20;99.90;;;;;;5057963;28;20404;-81
2021/05/07 06:25:10;;;;;;;9.20;1.87;;;7.40;99.90;;;;;;5076013;28;20909;-81
2021/05/07 06:27:36;;;;;;;6.03;2.00;;;7.70;99.90;;;;;;5077499;28;20251;-81
2021/05/07 06:30:03;;;;;;;5.67;1.67;;;7.80;99.90;;;;;;5062454;28;20215;-81
2021/05/07 06:32:29;;;;;;;6.17;1.27;;;8.00;99.90;;;;;;5079534;28;20413;-81
2021/05/07 06:34:54;;;;;;;5.03;1.50;;;8.10;99.90;;;;;;5062661;28;20502;-80
2021/05/07 06:37:20;;;;;;;4.00;1.53;;;8.00;99.90;;;;;;5081058;28;20263;-81
2021/05/07 06:39:45;;;;;;;3.20;1.47;;;8.00;99.90;;;;;;5081149;28;20236;-81
2021/05/07 06:42:11;;;;;;;3.63;1.50;;;8.10;99.90;;;;;;5062740;28;20185;-81
2021/05/07 06:44:37;;;;;;;3.53;1.37;;;8.10;99.90;;;;;;5062249;28;20262;-81
2021/05/07 06:47:03;;;;;;;4.53;1.30;;;8.20;99.90;;;;;;5062409;28;20544;-81
2021/05/07 06:49:28;;;;;;;3.33;1.60;;;8.20;99.90;;;;;;5081399;28;20177;-81
2021/05/07 06:51:54;;;;;;;5.67;1.50;;;8.30;99.90;;;;;;5080402;28;20208;-81
2021/05/07 06:54:27;;;;;;;3.60;1.70;;;8.40;99.90;;;;;;5080345;28;20185;-81
2021/05/07 06:56:57;;;;;;;2.43;1.13;;;8.50;99.90;;;;;;5063139;28;20580;-81
2021/05/07 06:59:27;;;;;;;5.57;1.57;;;8.60;99.90;;;;;;5063093;28;20186;-81
2021/05/07 07:01:54;;;;;;;3.07;1.00;;;8.70;99.90;;;;;;5080544;28;20200;-81
2021/05/07 07:04:19;;;;;;;7.27;1.10;;;8.90;99.90;;;;;;5080058;28;20694;-81
2021/05/07 07:06:45;;;;;;;2.67;1.07;;;8.90;99.90;;;;;;5062674;28;20173;-81
2021/05/07 07:09:12;;;;;;;6.13;1.27;;;8.90;99.90;;;;;;5062055;28;20581;-81
2021/05/07 07:11:38;;;;;;;4.90;1.60;;;8.60;99.90;;;;;;5080411;28;20432;-81
2021/05/07 07:14:04;;;;;;;5.27;1.47;;;8.50;99.90;;;;;;5080762;28;20183;-82
2021/05/07 07:16:30;;;;;;;4.27;1.13;;;8.30;99.90;;;;;;5062764;28;20184;-82
2021/05/07 07:18:56;;;;;;;3.63;1.30;;;8.30;99.90;;;;;;5062402;28;20177;-81
2021/05/07 07:21:21;;;;;;;2.90;1.07;;;8.20;99.90;;;;;;5062556;28;20288;-81
2021/05/07 07:23:47;;;;;;;5.70;1.33;;;8.30;99.90;;;;;;5081043;28;20669;-82
2021/05/07 07:26:13;;;;;;;8.53;1.57;;;8.40;99.90;;;;;;5083329;28;20176;-82
2021/05/07 07:28:39;;;;;;;3.07;1.00;;;8.40;99.90;;;;;;5064086;28;20177;-81
2021/05/07 07:31:05;;;;;;;3.73;1.03;;;8.40;99.90;;;;;;5064436;28;20209;-81
2021/05/07 07:33:31;;;;;;;3.07;1.03;;;8.40;99.90;;;;;;5065284;28;20188;-81
2021/05/07 07:35:58;;;;;;;4.33;1.20;;;8.50;99.90;;;;;;5066080;28;20630;-81
2021/05/07 07:38:24;;;;;;;3.70;1.30;;;8.50;99.90;;;;;;5062854;28;20264;-82
2021/05/07 07:40:50;;;;;;;2.47;1.20;;;8.50;99.90;;;;;;5062646;28;20565;-81
2021/05/07 07:43:18;;;;;;;5.97;1.50;;;8.50;99.90;;;;;;5080137;28;20276;-81
2021/05/07 07:45:44;;;;;;;5.10;1.00;;;8.50;99.90;;;;;;5078469;28;20173;-81
2021/05/07 07:48:11;;;;;;;1.77;1.00;;;8.40;99.90;;;;;;5078993;28;20177;-81
2021/05/07 07:50:37;;;;;;;3.07;1.13;;;8.30;99.90;;;;;;5079006;28;20188;-81
2021/05/07 07:53:03;;;;;;;4.20;1.30;;;8.50;99.90;;;;;;5079116;28;20180;-81
2021/05/07 07:55:29;;;;;;;2.07;1.17;;;8.90;99.90;;;;;;5059881;28;20267;-81
2021/05/07 07:57:54;;;;;;;2.23;0.80;;;9.20;99.90;;;;;;5078006;28;20181;-81
2021/05/07 08:00:20;;;;;;;3.90;0.57;;;8.90;99.90;;;;;;5078598;28;20203;-81
2021/05/07 08:02:47;;;;;;;0.67;0.60;;;7.70;99.90;;;;;;5077726;28;20186;-81
2021/05/07 08:05:14;;;;;;;0.40;0.40;;;6.50;99.90;;;;;;5059948;28;20188;-81
2021/05/07 08:07:40;;;;;;;4.63;0.73;;;5.70;99.90;;;;;;5059558;28;20184;-81
2021/05/07 08:10:07;;;;;;;0.40;0.40;;;5.20;99.90;;;;;;5076945;28;20279;-81
2021/05/07 08:12:32;;;;;;;1.53;1.20;;;4.80;99.90;;;;;;5076710;28;20178;-81
2021/05/07 08:14:58;;;;;;;1.17;1.00;;;4.50;99.90;;;;;;5058975;28;20188;-80
2021/05/07 08:17:24;;;;;;;0.90;0.90;;;4.30;99.90;;;;;;5058503;28;20223;-80
2021/05/07 08:19:50;;;;;;;1.47;1.37;;;4.10;99.90;;;;;;5059008;28;20596;-81
2021/05/07 08:22:17;;;;;;;1.30;0.87;;;4.10;99.90;;;;;;5058315;28;20727;-80
2021/05/07 08:24:46;;;;;;;1.07;1.00;;;4.00;99.90;;;;;;5064788;28;20520;-80
2021/05/07 08:27:12;;;;;;;2.00;1.27;;;4.10;99.90;;;;;;5088631;28;20442;-80
2021/05/07 08:29:38;;;;;;;1.30;0.97;;;4.20;99.90;;;;;;5079948;28;20431;-80
2021/05/07 08:32:04;;;;;;;0.90;0.90;;;4.00;99.90;;;;;;5100626;28;20191;-80
2021/05/07 08:34:30;;;;;;;1.50;1.40;;;4.00;99.90;;;;;;5079509;28;20181;-82
2021/05/07 08:36:56;;;;;;;1.13;1.03;;;4.10;99.90;;;;;;5060018;28;20486;-81
2021/05/07 08:39:21;;;;;;;1.30;1.20;;;4.20;99.90;;;;;;5059500;28;20540;-82
2021/05/07 08:41:48;;;;;;;1.20;1.10;;;4.30;99.90;;;;;;5078099;28;20571;-81
2021/05/07 08:44:15;;;;;;;1.40;1.00;;;4.30;99.90;;;;;;5079432;28;20197;-82
2021/05/07 08:46:42;;;;;;;1.40;1.30;;;4.40;99.90;;;;;;5079841;28;20415;-82
2021/05/07 08:49:10;;;;;;;2.03;1.43;;;4.40;99.90;;;;;;5061463;28;20411;-81
2021/05/07 08:51:36;;;;;;;1.23;1.13;;;4.40;99.90;;;;;;5059260;28;20451;-81
2021/05/07 08:54:02;;;;;;;1.03;0.97;;;4.50;99.90;;;;;;5077042;28;20411;-81
2021/05/07 08:56:27;;;;;;;1.10;1.00;;;4.60;99.90;;;;;;5058952;28;20172;-82
2021/05/07 08:58:53;;;;;;;0.80;0.80;;;4.80;99.90;;;;;;5077563;28;20192;-81
2021/05/07 09:01:19;;;;;;;1.00;1.00;;;5.00;99.90;;;;;;5059648;28;20218;-81
2021/05/07 09:03:48;;;;;;;1.13;1.10;;;5.20;99.90;;;;;;5077370;28;20653;-81
2021/05/07 09:06:21;;;;;;;0.97;0.97;;;5.50;99.90;;;;;;5058595;28;20177;-81
2021/05/07 09:08:48;;;;;;;1.30;1.20;;;5.90;99.90;;;;;;5077273;28;20411;-81
2021/05/07 09:11:15;;;;;;;0.60;0.60;;;6.00;99.90;;;;;;5078521;28;20438;-82
2021/05/07 09:13:41;;;;;;;0.70;0.70;;;6.00;99.90;;;;;;5060123;28;20506;-81
2021/05/07 09:16:09;;;;;;;0.63;0.63;;;5.90;99.90;;;;;;5059873;28;20450;-81
2021/05/07 09:18:46;;;;;;;0.80;0.77;;;5.90;99.90;;;;;;5059647;28;20244;-81
2021/05/07 09:21:13;;;;;;;1.27;0.90;;;5.90;99.90;;;;;;5059195;28;21039;-82
2021/05/07 09:23:40;;;;;;;1.33;1.23;;;6.00;99.90;;;;;;5059130;28;20542;-82
2021/05/07 09:26:06;;;;;;;1.50;1.40;;;5.90;99.90;;;;;;5077422;28;20912;-82
2021/05/07 09:28:33;;;;;;;1.23;1.13;;;6.00;99.90;;;;;;5059700;28;20181;-82
2021/05/07 09:31:16;;;;;;;3.60;2.70;;;6.00;99.90;;;;;;5077005;28;20423;-82
2021/05/07 09:33:43;;;;;;;3.20;2.70;;;6.10;99.90;;;;;;5059959;28;20904;-82
2021/05/07 09:36:20;;;;;;;1.80;1.70;;;6.20;99.90;;;;;;5059324;28;20786;-82
2021/05/07 09:38:46;;;;;;;1.73;1.50;;;6.10;99.90;;;;;;5058069;28;20411;-82
2021/05/07 09:41:11;;;;;;;1.50;1.40;;;6.00;99.90;;;;;;5058545;28;20674;-82
2021/05/07 09:43:37;;;;;;;1.00;0.90;;;5.90;99.90;;;;;;5058598;28;20197;-82
2021/05/07 09:46:03;;;;;;;0.87;0.87;;;5.90;99.90;;;;;;5076506;28;20181;-82
2021/05/07 09:48:29;;;;;;;0.90;0.90;;;6.00;99.90;;;;;;5077131;28;20180;-82
2021/05/07 09:51:02;;;;;;;0.70;0.70;;;5.90;99.90;;;;;;5058653;28;20283;-82
2021/05/07 09:53:33;;;;;;;1.00;0.93;;;6.10;99.90;;;;;;5076100;28;20401;-82
2021/05/07 09:56:13;;;;;;;4.50;0.90;;;6.30;99.90;;;;;;5058366;28;20427;-80
2021/05/07 09:58:39;;;;;;;0.93;0.83;;;6.50;99.90;;;;;;5058837;28;20411;-80
2021/05/07 10:01:05;;;;;;;1.30;1.20;;;6.80;99.90;;;;;;5076699;28;20436;-80
2021/05/07 10:03:32;;;;;;;1.50;1.10;;;7.30;99.90;;;;;;5077180;28;20561;-80
2021/05/07 10:05:57;;;;;;;2.10;1.80;;;8.10;99.90;;;;;;5059323;28;20258;-83
2021/05/07 10:08:23;;;;;;;2.77;2.43;;;8.10;99.90;;;;;;5077335;28;20177;-80
2021/05/07 10:10:50;;;;;;;1.70;1.60;;;8.00;99.90;;;;;;5077319;28;20271;-80
2021/05/07 10:13:24;;;;;;;1.00;0.80;;;7.80;99.90;;;;;;5077932;28;20255;-80
2021/05/07 10:16:01;;;;;;;1.73;1.40;;;7.60;99.90;;;;;;5059995;28;20180;-81
2021/05/07 10:18:27;;;;;;;0.80;0.80;;;7.30;99.90;;;;;;5078175;28;20487;-80
2021/05/07 10:21:11;;;;;;;1.03;0.90;;;7.00;99.90;;;;;;5078151;28;20217;-81
2021/05/07 10:23:50;;;;;;;1.13;1.03;;;6.80;99.90;;;;;;5060139;28;20275;-80
2021/05/07 10:26:16;;;;;;;0.70;0.70;;;6.90;99.90;;;;;;5079051;28;20168;-80
2021/05/07 10:28:51;;;;;;;0.80;0.80;;;7.00;99.90;;;;;;5061051;28;20503;-81
2021/05/07 10:31:18;;;;;;;0.83;0.70;;;7.00;99.90;;;;;;5079977;28;20685;-81
2021/05/07 10:33:57;;;;;;;0.60;0.60;;;7.10;99.90;;;;;;5079948;28;20260;-82
2021/05/07 10:36:23;;;;;;;1.43;1.20;;;7.20;99.90;;;;;;5061567;28;20238;-81
2021/05/07 10:38:49;;;;;;;1.30;1.20;;;7.20;99.90;;;;;;5061623;28;20267;-81
2021/05/07 10:41:15;;;;;;;1.20;1.00;;;7.10;99.90;;;;;;5061092;28;20204;-82
2021/05/07 10:43:45;;;;;;;1.27;1.17;;;7.00;99.90;;;;;;5079235;28;20215;-81
2021/05/07 10:46:21;;;;;;;1.17;1.07;;;7.10;99.90;;;;;;5079230;28;20173;-81
2021/05/07 10:48:54;;;;;;;1.63;1.20;;;7.10;99.90;;;;;;5079167;28;20168;-81
2021/05/07 10:51:22;;;;;;;0.93;0.90;;;7.00;99.90;;;;;;5079270;28;20665;-81
2021/05/07 10:53:49;;;;;;;1.17;1.07;;;6.90;99.90;;;;;;5061383;28;20605;-81
2021/05/07 10:56:24;;;;;;;2.60;1.30;;;6.70;99.90;;;;;;5079508;28;20177;-81
2021/05/07 10:58:51;;;;;;;1.50;1.40;;;6.60;99.90;;;;;;5079497;28;20194;-81
2021/05/07 11:01:29;;;;;;;1.27;1.07;;;6.40;99.90;;;;;;5061700;28;20205;-81
2021/05/07 11:03:59;;;;;;;1.60;1.50;;;6.30;99.90;;;;;;5079859;28;20201;-83
2021/05/07 11:06:42;;;;;;;2.53;1.90;;;6.20;99.90;;;;;;5062148;28;20227;-81
2021/05/07 11:09:12;;;;;;;3.27;2.50;;;6.20;99.90;;;;;;5062557;28;20255;-80
2021/05/07 11:11:38;;;;;;;2.03;1.80;;;6.30;99.90;;;;;;5060898;28;20200;-81
2021/05/07 11:14:06;;;;;;;1.90;1.80;;;6.30;99.90;;;;;;5062708;28;20189;-81
2021/05/07 11:16:43;;;;;;;1.77;1.57;;;6.40;99.90;;;;;;5065455;28;20189;-81
2021/05/07 11:19:22;;;;;;;6.20;2.93;;;6.40;99.90;;;;;;5082888;28;20160;-81
2021/05/07 11:21:52;;;;;;;3.53;2.00;;;6.50;99.90;;;;;;5083719;28;20212;-81
2021/05/07 11:24:22;;;;;;;3.80;2.37;;;6.60;99.90;;;;;;5065585;28;20678;-82
2021/05/07 11:26:47;;;;;;;2.07;1.70;;;6.60;99.90;;;;;;5083465;28;20627;-81
2021/05/07 11:29:23;;;;;;;2.07;1.83;;;6.60;99.90;;;;;;5064549;28;20513;-81
2021/05/07 11:31:49;;;;;;;2.40;1.90;;;6.60;99.90;;;;;;5061176;28;20283;-80
2021/05/07 11:34:26;;;;;;;4.33;1.97;;;6.70;99.90;;;;;;5064542;28;20442;-80
2021/05/07 11:36:59;;;;;;;3.77;1.90;;;6.70;99.90;;;;;;5094618;28;20153;-79
2021/05/07 11:39:26;;;;;;;2.10;2.00;;;6.70;99.90;;;;;;5084342;28;20419;-79
2021/05/07 11:41:51;;;;;;;2.10;1.90;;;6.80;99.90;;;;;;5098474;28;20439;-81
2021/05/07 11:44:17;;;;;;;1.83;1.73;;;6.90;99.90;;;;;;5063910;28;20458;-82
2021/05/07 11:47:12;;;;;;;2.90;2.20;;;6.80;99.90;;;;;;5081425;28;20169;-81
2021/05/07 11:49:38;;;;;;;2.77;1.80;;;6.70;99.90;;;;;;5080882;28;20236;-82
2021/05/07 11:52:05;;;;;;;2.30;2.10;;;6.50;99.90;;;;;;5065292;28;20411;-80
2021/05/07 11:54:45;;;;;;;2.87;1.87;;;6.50;99.90;;;;;;5083296;28;20173;-82
2021/05/07 11:57:12;;;;;;;2.57;2.37;;;6.60;99.90;;;;;;5061705;28;20173;-81
2021/05/07 11:59:46;;;;;;;2.47;2.13;;;6.60;99.90;;;;;;5083160;28;20419;-82
2021/05/07 12:02:21;;;;;;;2.00;1.80;;;6.80;99.90;;;;;;5063675;28;20408;-82
2021/05/07 12:04:47;;;;;;;2.97;1.90;;;6.80;99.90;;;;;;5065559;28;20206;-82
2021/05/07 12:07:28;;;;;;;2.20;2.00;;;6.70;99.90;;;;;;5085700;28;20236;-82
2021/05/07 12:09:55;;;;;;;2.30;1.90;;;6.60;99.90;;;;;;5077362;28;20745;-82
2021/05/07 12:12:22;;;;;;;3.13;2.03;;;6.40;99.90;;;;;;5068208;28;20467;-82
2021/05/07 12:14:49;;;;;;;2.57;2.03;;;6.10;99.90;;;;;;5067770;28;20518;-83
2021/05/07 12:17:21;;;;;;;5.70;2.53;;;6.00;99.90;;;;;;5066917;28;20407;-82
2021/05/07 12:20:00;;;;;;;3.07;2.33;;;5.90;99.90;;;;;;5065940;28;20419;-81
2021/05/07 12:22:25;;;;;;;2.80;2.07;;;6.00;99.90;;;;;;5055940;28;20197;-82
2021/05/07 12:24:51;;;;;;;2.20;2.00;;;5.90;99.90;;;;;;5075274;28;20463;-82
2021/05/07 12:27:28;;;;;;;2.27;1.70;;;5.80;99.90;;;;;;5064600;28;20181;-82
2021/05/07 12:29:53;;;;;;;2.60;2.30;;;5.80;99.90;;;;;;5064534;28;20172;-82
2021/05/07 12:32:23;;;;;;;3.10;2.60;;;6.10;99.90;;;;;;5064368;28;20415;-82
2021/05/07 12:34:56;;;;;;;1.53;1.43;;;6.90;99.90;;;;;;5082813;28;20188;-82
2021/05/07 12:37:22;;;;;;;2.43;2.20;;;7.20;99.90;;;;;;5064485;28;20423;-82
2021/05/07 12:39:48;;;;;;;3.50;1.90;;;7.50;99.90;;;;;;5063571;28;20650;-82
2021/05/07 12:42:13;;;;;;;4.13;3.20;;;7.80;99.90;;;;;;5080481;28;20705;-82
2021/05/07 12:44:39;;;;;;;2.67;2.13;;;8.40;99.90;;;;;;5082301;28;20200;-82
2021/05/07 12:47:05;;;;;;;4.20;2.87;;;9.10;99.90;;;;;;5064196;28;20177;-82
2021/05/07 12:49:30;;;;;;;10.43;5.37;;;10.20;99.90;;;;;;5063116;28;20263;-82
2021/05/07 12:52:00;;;;;;;31.30;17.90;;;11.00;99.90;;;;;;5082054;28;20198;-82
2021/05/07 12:54:26;;;;;;;21.43;12.13;;;11.00;99.90;;;;;;5063667;28;20183;-82
2021/05/07 12:56:52;;;;;;;13.50;7.33;;;12.00;99.90;;;;;;5064020;28;20177;-82
2021/05/07 12:59:18;;;;;;;7.43;4.83;;;13.00;99.90;;;;;;5078262;28;20183;-81
2021/05/07 13:01:47;;;;;;;3.13;2.70;;;12.70;99.90;;;;;;5059862;28;20205;-82